Time;durP1;ratioP1;P1;durP2;ratioP2;P2;SDS_P1;SDS_P2;PMS_P1;PMS_P2;Temp;Humidity;BMP_temperature;BMP_pressure;BME280_temperature;BME280_humidity;BME280_pressure;Samples;Min_cycle;Max_cycle;Signal;HPM_P1;HPM_P2
2022/04/13 00:02:08;;;;;;;13.98;9.80;;;12.70;99.90;;;;;;5094058;22;20060;-82
2022/04/13 00:04:34;;;;;;;16.20;9.38;;;14.10;99.90;;;;;;5097551;22;20048;-90
2022/04/13 00:06:59;;;;;;;16.05;9.35;;;13.80;99.90;;;;;;5096269;22;20072;-88
2022/04/13 00:09:25;;;;;;;15.70;9.50;;;13.20;99.90;;;;;;5095930;22;20083;-92
2022/04/13 00:11:54;;;;;;;15.95;10.15;;;13.50;99.90;;;;;;5086077;22;20049;-84
2022/04/13 00:14:22;;;;;;;17.33;9.73;;;12.70;99.90;;;;;;5106163;22;20036;-82
2022/04/13 00:16:50;;;;;;;16.63;10.15;;;13.00;99.90;;;;;;5113350;22;20124;-86
2022/04/13 00:19:16;;;;;;;18.40;10.40;;;13.10;99.90;;;;;;5071122;23;20058;-87
2022/04/13 00:21:42;;;;;;;19.10;10.68;;;14.10;99.90;;;;;;5085389;22;20044;-88
2022/04/13 00:24:08;;;;;;;18.55;11.25;;;12.50;99.90;;;;;;5082205;22;20036;-81
2022/04/13 00:26:34;;;;;;;17.55;10.57;;;12.40;99.90;;;;;;5089191;22;20044;-91
2022/04/13 00:29:06;;;;;;;20.15;10.95;;;12.60;99.90;;;;;;5099123;22;20140;-84
2022/04/13 00:31:32;;;;;;;22.20;11.25;;;13.00;99.90;;;;;;5078436;22;20044;-91
2022/04/13 00:33:58;;;;;;;17.27;11.02;;;13.20;99.90;;;;;;5083822;22;20060;-83
2022/04/13 00:36:23;;;;;;;18.83;11.25;;;12.10;99.90;;;;;;5089599;22;20067;-82
2022/04/13 00:38:49;;;;;;;19.25;12.00;;;12.10;99.90;;;;;;5093034;23;20082;-90
2022/04/13 00:41:17;;;;;;;19.35;10.77;;;13.80;99.90;;;;;;5078999;22;20056;-83
2022/04/13 00:43:44;;;;;;;18.35;10.75;;;12.50;99.90;;;;;;5080538;22;20039;-92
2022/04/13 00:46:10;;;;;;;19.15;11.00;;;13.40;99.90;;;;;;5136646;22;20487;-83
2022/04/13 00:48:39;;;;;;;19.83;12.43;;;12.30;99.90;;;;;;5095876;22;21217;-91
2022/04/13 00:51:05;;;;;;;19.27;11.50;;;12.10;99.90;;;;;;5068699;22;20131;-91
2022/04/13 00:53:33;;;;;;;18.55;11.65;;;13.20;99.90;;;;;;5070945;22;20052;-91
2022/04/13 00:56:00;;;;;;;20.40;11.93;;;12.00;99.90;;;;;;5099733;22;20048;-90
2022/04/13 00:58:31;;;;;;;22.70;11.80;;;11.90;99.90;;;;;;5099916;22;20043;-82
2022/04/13 01:01:00;;;;;;;18.02;11.52;;;13.20;99.90;;;;;;5104467;22;20564;-91
2022/04/13 01:03:27;;;;;;;19.00;11.32;;;11.70;99.90;;;;;;5095508;22;20054;-91
2022/04/13 01:05:53;;;;;;;18.00;11.40;;;12.50;99.90;;;;;;5109454;22;20092;-91
2022/04/13 01:08:20;;;;;;;20.02;11.55;;;13.00;99.90;;;;;;5116530;22;20047;-90
2022/04/13 01:10:49;;;;;;;21.88;12.40;;;11.80;99.90;;;;;;5112136;22;20055;-91
2022/04/13 01:13:16;;;;;;;25.40;12.57;;;13.20;99.90;;;;;;5100483;22;20037;-83
2022/04/13 01:15:42;;;;;;;20.50;12.63;;;11.60;99.90;;;;;;5086912;22;21598;-82
2022/04/13 01:18:13;;;;;;;20.85;11.90;;;11.40;99.90;;;;;;5103478;22;20119;-81
2022/04/13 01:20:49;;;;;;;23.55;12.45;;;12.80;99.90;;;;;;5104387;22;21414;-92
2022/04/13 01:23:14;;;;;;;22.27;12.85;;;12.60;99.90;;;;;;5096698;22;20048;-83
2022/04/13 01:25:48;;;;;;;24.48;12.88;;;12.40;99.90;;;;;;5093854;22;20140;-83
2022/04/13 01:28:13;;;;;;;23.13;14.23;;;12.20;99.90;;;;;;5112218;22;20052;-81
2022/04/13 01:30:39;;;;;;;22.23;13.20;;;12.00;99.90;;;;;;5118743;22;20558;-83
2022/04/13 01:33:11;;;;;;;24.90;13.63;;;11.40;99.90;;;;;;5113301;22;20051;31
2022/04/13 01:35:37;;;;;;;23.98;13.95;;;11.70;99.90;;;;;;5077972;22;20053;-86
2022/04/13 01:38:09;;;;;;;26.80;14.10;;;11.70;99.90;;;;;;5076776;22;20057;-83
2022/04/13 01:40:35;;;;;;;22.77;13.32;;;11.60;99.90;;;;;;5089990;22;20052;-91
2022/04/13 01:43:01;;;;;;;24.73;13.85;;;11.80;99.90;;;;;;5083603;22;20048;-82
2022/04/13 01:45:26;;;;;;;25.77;13.43;;;11.70;99.90;;;;;;5080720;23;20048;-91
2022/04/13 01:47:52;;;;;;;24.13;13.52;;;12.00;99.90;;;;;;5096803;23;20069;-83
2022/04/13 01:50:20;;;;;;;24.70;14.00;;;11.60;99.90;;;;;;5117665;22;20120;-83
2022/04/13 01:52:47;;;;;;;27.98;15.43;;;11.60;99.90;;;;;;5113130;22;20098;-90
2022/04/13 01:55:13;;;;;;;24.70;14.20;;;11.80;99.90;;;;;;5118291;22;20055;-81
2022/04/13 01:57:40;;;;;;;25.63;14.20;;;11.60;99.90;;;;;;5093135;22;20452;-90
2022/04/13 02:00:09;;;;;;;25.75;14.70;;;12.30;99.90;;;;;;5091500;22;20057;-82
2022/04/13 02:02:34;;;;;;;25.65;14.77;;;11.90;99.90;;;;;;5112584;22;20082;-91
2022/04/13 02:05:08;;;;;;;24.42;14.38;;;11.70;99.90;;;;;;5094394;22;20048;-91
2022/04/13 02:07:34;;;;;;;26.13;15.35;;;11.90;99.90;;;;;;5073741;22;20175;-91
2022/04/13 02:10:00;;;;;;;26.92;15.35;;;13.00;99.90;;;;;;5077560;22;20057;-90
2022/04/13 02:12:25;;;;;;;25.92;14.93;;;11.60;99.90;;;;;;5083646;22;20050;-83
2022/04/13 02:14:51;;;;;;;27.35;15.35;;;11.70;99.90;;;;;;5108408;22;20048;-83
2022/04/13 02:17:17;;;;;;;28.35;15.30;;;11.70;99.90;;;;;;5115389;22;20049;-82
2022/04/13 02:19:44;;;;;;;24.58;13.88;;;;;;;;;;5113710;22;20054;-91
2022/04/13 02:22:11;;;;;;;25.83;14.50;;;11.90;99.90;;;;;;5086113;22;20041;-81
2022/04/13 02:24:40;;;;;;;25.30;14.85;;;11.80;99.90;;;;;;5089283;23;20048;-91
2022/04/13 02:27:12;;;;;;;23.75;14.25;;;12.00;99.90;;;;;;5092125;22;20691;-92
2022/04/13 02:29:38;;;;;;;27.45;14.73;;;11.90;99.90;;;;;;5067772;22;20055;-91
2022/04/13 02:32:05;;;;;;;26.02;14.55;;;12.10;99.90;;;;;;5095067;22;20063;-82
2022/04/13 02:34:31;;;;;;;24.75;14.88;;;11.60;99.90;;;;;;5110158;22;20131;-91
2022/04/13 02:36:58;;;;;;;25.05;14.60;;;12.20;99.90;;;;;;5089088;22;20075;-86
2022/04/13 02:39:24;;;;;;;23.35;13.80;;;11.70;99.90;;;;;;5090909;22;20059;-91
2022/04/13 02:41:49;;;;;;;26.80;14.40;;;12.20;99.90;;;;;;5082175;23;20187;-83
2022/04/13 02:44:15;;;;;;;25.17;13.68;;;11.80;99.90;;;;;;5091083;22;20090;-83
2022/04/13 02:46:43;;;;;;;26.33;14.30;;;12.00;99.90;;;;;;5091384;22;20053;-91
2022/04/13 02:49:11;;;;;;;24.98;14.60;;;11.70;99.90;;;;;;5089736;22;20435;-83
2022/04/13 02:51:37;;;;;;;26.05;14.35;;;11.60;99.90;;;;;;5081645;23;20063;-91
2022/04/13 02:54:09;;;;;;;28.88;14.15;;;11.70;99.90;;;;;;5084755;22;20046;-83
2022/04/13 02:56:35;;;;;;;25.92;14.38;;;11.60;99.90;;;;;;5077409;22;20059;-83
2022/04/13 02:59:07;;;;;;;26.85;15.13;;;11.40;99.90;;;;;;5070646;22;20420;-83
2022/04/13 03:01:33;;;;;;;28.98;15.45;;;12.40;99.90;;;;;;5077908;22;21541;-92
2022/04/13 03:03:58;;;;;;;28.63;15.65;;;11.40;99.90;;;;;;5079014;22;20079;-90
2022/04/13 03:06:24;;;;;;;27.02;14.80;;;11.40;99.90;;;;;;5080987;22;20059;-82
2022/04/13 03:08:50;;;;;;;29.00;15.23;;;11.50;99.90;;;;;;5080089;22;20479;-83
2022/04/13 03:11:17;;;;;;;31.33;15.93;;;11.40;99.90;;;;;;5097690;22;20055;-83
2022/04/13 03:13:42;;;;;;;28.65;15.40;;;11.30;99.90;;;;;;5082650;22;20044;-83
2022/04/13 03:16:08;;;;;;;29.90;15.50;;;11.50;99.90;;;;;;5106502;22;20059;-82
2022/04/13 03:18:34;;;;;;;25.98;15.00;;;11.40;99.90;;;;;;5089361;22;20044;-91
2022/04/13 03:20:59;;;;;;;26.85;14.98;;;11.30;99.90;;;;;;5068478;22;20055;-83
2022/04/13 03:23:25;;;;;;;26.83;15.70;;;11.60;99.90;;;;;;5087337;22;20054;-82
2022/04/13 03:25:52;;;;;;;24.55;15.15;;;11.20;99.90;;;;;;5091367;22;20556;-83
2022/04/13 03:28:19;;;;;;;28.33;16.25;;;11.50;99.90;;;;;;5078532;22;20387;-82
2022/04/13 03:30:45;;;;;;;28.25;15.88;;;11.30;99.90;;;;;;5078848;22;20404;-91
2022/04/13 03:33:13;;;;;;;28.73;15.10;;;11.30;99.90;;;;;;5100418;22;20082;-89
2022/04/13 03:35:39;;;;;;;29.05;15.55;;;11.40;99.90;;;;;;5094095;22;20044;-83
2022/04/13 03:38:11;;;;;;;24.58;14.85;;;11.40;99.90;;;;;;5102370;22;20086;31
2022/04/13 03:40:37;;;;;;;27.90;16.20;;;12.10;99.90;;;;;;5066048;22;20455;-83
2022/04/13 03:43:09;;;;;;;31.27;16.85;;;11.30;99.90;;;;;;5089762;22;20053;-83
2022/04/13 03:45:36;;;;;;;25.50;15.25;;;12.80;99.90;;;;;;5106793;22;20050;-91
2022/04/13 03:48:08;;;;;;;26.25;15.32;;;11.10;99.90;;;;;;5080966;22;20071;-83
2022/04/13 03:50:34;;;;;;;29.10;15.52;;;12.20;99.90;;;;;;5066463;22;20064;-82
2022/04/13 03:52:59;;;;;;;29.27;15.20;;;11.10;99.90;;;;;;5075761;22;20074;-91
2022/04/13 03:55:25;;;;;;;27.92;15.50;;;11.10;99.90;;;;;;5040152;22;1103247;-91
2022/04/13 03:57:51;;;;;;;27.23;15.38;;;11.00;99.90;;;;;;5072313;22;20045;-85
2022/04/13 04:00:17;;;;;;;30.17;15.80;;;11.10;99.90;;;;;;5096652;22;20044;-82
2022/04/13 04:02:44;;;;;;;25.60;15.65;;;12.60;99.90;;;;;;5076778;22;20051;-83
2022/04/13 04:05:13;;;;;;;27.60;16.15;;;10.60;99.90;;;;;;5095937;22;20059;-81
2022/04/13 04:07:40;;;;;;;29.17;16.05;;;11.80;99.90;;;;;;5081493;22;20059;-91
2022/04/13 04:10:07;;;;;;;31.02;15.85;;;10.70;99.90;;;;;;5071885;23;20049;-83
2022/04/13 04:12:37;;;;;;;25.98;15.68;;;11.20;99.90;;;;;;5083165;22;20052;-82
2022/04/13 04:15:10;;;;;;;28.35;15.85;;;11.00;99.90;;;;;;5100889;22;20051;-83
2022/04/13 04:17:39;;;;;;;29.33;15.35;;;10.70;99.90;;;;;;5101785;22;20081;-81
2022/04/13 04:20:11;;;;;;;25.23;15.52;;;10.60;99.90;;;;;;5107175;22;20431;-83
2022/04/13 04:22:37;;;;;;;27.40;15.70;;;10.80;99.90;;;;;;5113763;22;20062;-91
2022/04/13 04:25:04;;;;;;;26.25;15.50;;;10.70;99.90;;;;;;5082214;22;20112;-82
2022/04/13 04:27:30;;;;;;;29.25;15.93;;;10.80;99.90;;;;;;5080805;22;20109;-88
2022/04/13 04:29:55;;;;;;;30.13;16.33;;;10.80;99.90;;;;;;5085130;23;20052;-83
2022/04/13 04:32:21;;;;;;;26.65;16.05;;;10.70;99.90;;;;;;5088842;22;20043;-91
2022/04/13 04:34:47;;;;;;;26.08;16.02;;;10.80;99.90;;;;;;5072578;23;20060;-82
2022/04/13 04:37:14;;;;;;;27.90;15.50;;;10.80;99.90;;;;;;5111330;22;20108;-82
2022/04/13 04:39:39;;;;;;;26.73;16.25;;;11.00;99.90;;;;;;5106854;22;20447;-91
2022/04/13 04:42:05;;;;;;;34.17;16.38;;;10.90;99.90;;;;;;5088236;22;20144;-83
2022/04/13 04:44:31;;;;;;;26.60;15.75;;;11.00;99.90;;;;;;5070889;22;20049;-82
2022/04/13 04:46:57;;;;;;;32.17;17.40;;;10.60;99.90;;;;;;5086146;23;20064;-82
2022/04/13 04:49:23;;;;;;;28.90;17.45;;;10.90;99.90;;;;;;5088605;22;20078;-83
2022/04/13 04:51:48;;;;;;;29.95;16.77;;;10.90;99.90;;;;;;5076521;23;20051;-85
2022/04/13 04:54:14;;;;;;;30.60;17.33;;;;;;;;;;5105618;22;20047;-83
2022/04/13 04:56:40;;;;;;;31.63;17.98;;;;;;;;;;5098433;22;20056;-92
2022/04/13 04:59:07;;;;;;;29.38;18.08;;;;;;;;;;5088662;28;20071;-83
2022/04/13 05:01:33;;;;;;;31.85;18.50;;;;;;;;;;5102483;22;20050;-91
2022/04/13 05:03:59;;;;;;;31.67;17.92;;;;;;;;;;5113246;22;20113;-82
2022/04/13 05:06:28;;;;;;;31.00;18.40;;;11.10;99.90;;;;;;5101760;22;20060;-91
2022/04/13 05:08:57;;;;;;;35.65;19.25;;;11.10;99.90;;;;;;5082824;22;20045;-92
2022/04/13 05:11:23;;;;;;;31.80;18.48;;;;;;;;;;5084508;22;20067;-91
2022/04/13 05:13:49;;;;;;;33.55;18.08;;;11.10;99.90;;;;;;5120792;22;20119;-91
2022/04/13 05:16:16;;;;;;;31.27;19.13;;;;;;;;;;5097383;22;20091;-82
2022/04/13 05:18:43;;;;;;;30.60;19.35;;;;;;;;;;5107808;22;20064;-83
2022/04/13 05:21:09;;;;;;;32.35;19.75;;;;;;;;;;5123444;22;20056;-82
2022/04/13 05:23:37;;;;;;;32.40;19.75;;;;;;;;;;5093260;23;20078;-83
2022/04/13 05:26:03;;;;;;;33.97;19.13;;;;;;;;;;5085157;22;20048;-83
2022/04/13 05:28:29;;;;;;;33.00;20.50;;;;;;;;;;5061307;28;20029;-82
2022/04/13 05:30:55;;;;;;;33.72;19.80;;;;;;;;;;5075858;22;20075;-81
2022/04/13 05:33:22;;;;;;;32.67;20.00;;;;;;;;;;5085139;22;20033;-81
2022/04/13 05:35:48;;;;;;;32.03;20.77;;;;;;;;;;5064815;22;20132;-83
2022/04/13 05:38:14;;;;;;;34.50;21.55;;;;;;;;;;5084282;22;20048;-83
2022/04/13 05:40:40;;;;;;;36.47;22.45;;;;;;;;;;5033572;28;20056;-91
2022/04/13 05:43:13;;;;;;;33.03;20.40;;;;;;;;;;5087390;22;20113;31
2022/04/13 05:45:39;;;;;;;32.45;20.80;;;;;;;;;;5076887;22;20048;-82
2022/04/13 05:48:09;;;;;;;36.60;20.67;;;;;;;;;;5078321;22;20051;-83
2022/04/13 05:50:35;;;;;;;33.15;20.88;;;;;;;;;;5093983;22;20047;-83
2022/04/13 05:53:01;;;;;;;34.95;21.00;;;;;;;;;;5116723;22;20047;-82
2022/04/13 05:55:27;;;;;;;34.35;20.70;;;;;;;;;;5107247;22;20048;-91
2022/04/13 05:57:53;;;;;;;32.90;20.35;;;;;;;;;;5099164;22;20048;-91
2022/04/13 06:00:19;;;;;;;34.63;20.95;;;;;;;;;;5073273;28;20052;-83
2022/04/13 06:02:45;;;;;;;35.70;20.52;;;;;;;;;;5096557;22;20375;-81
2022/04/13 06:05:13;;;;;;;32.38;19.80;;;;;;;;;;5110580;22;20051;-81
2022/04/13 06:07:41;;;;;;;35.60;20.52;;;;;;;;;;5098767;22;20050;-82
2022/04/13 06:10:08;;;;;;;32.97;19.98;;;;;;;;;;5097366;22;20055;-83
2022/04/13 06:12:35;;;;;;;36.47;20.50;;;;;;;;;;5082170;22;20081;-83
2022/04/13 06:15:09;;;;;;;31.85;19.30;;;;;;;;;;5096391;22;20051;-82
2022/04/13 06:17:35;;;;;;;28.23;18.67;;;;;;;;;;5100052;22;20063;-82
2022/04/13 06:20:08;;;;;;;32.35;18.85;;;;;;;;;;5082654;22;20044;-91
2022/04/13 06:22:38;;;;;;;32.40;18.50;;;;;;;;;;5095313;22;20048;-83
2022/04/13 06:25:12;;;;;;;31.10;18.15;;;;;;;;;;5070324;22;20133;-83
2022/04/13 06:27:39;;;;;;;27.17;17.45;;;;;;;;;;5099250;22;20090;-82
2022/04/13 06:30:08;;;;;;;28.85;17.23;;;;;;;;;;5132065;22;20056;-82
2022/04/13 06:32:39;;;;;;;29.75;17.48;;;;;;;;;;5101916;22;20439;-83
2022/04/13 06:35:05;;;;;;;29.60;17.30;;;;;;;;;;5124929;22;20035;-82
2022/04/13 06:37:32;;;;;;;29.27;15.70;;;;;;;;;;5089575;22;20052;-82
2022/04/13 06:39:58;;;;;;;26.95;15.98;;;;;;;;;;5065526;22;20087;-82
2022/04/13 06:42:24;;;;;;;25.13;15.77;;;12.50;99.90;;;;;;5079052;22;20101;-83
2022/04/13 06:44:50;;;;;;;25.92;15.35;;;;;;;;;;5094320;22;20499;-82
2022/04/13 06:47:18;;;;;;;25.67;14.95;;;;;;;;;;5078691;22;20052;-83
2022/04/13 06:49:44;;;;;;;26.05;14.57;;;;;;;;;;5089082;22;20063;-82
2022/04/13 06:52:12;;;;;;;26.88;15.27;;;;;;;;;;5062642;22;20044;-81
2022/04/13 06:54:38;;;;;;;26.33;14.90;;;12.90;99.90;;;;;;5079716;22;20429;-82
2022/04/13 06:59:35;;;;;;;23.55;12.27;;;13.20;99.90;;;;;;5098627;22;20036;-82
2022/04/13 07:02:10;;;;;;;21.73;12.23;;;13.20;99.90;;;;;;5087063;22;20144;-82
2022/04/13 07:04:40;;;;;;;22.83;12.45;;;;;;;;;;5065319;22;20061;-82
2022/04/13 07:07:06;;;;;;;23.02;11.65;;;13.20;99.90;;;;;;5082959;22;20056;-82
2022/04/13 07:09:33;;;;;;;23.50;13.02;;;13.80;99.90;;;;;;5065740;22;20158;-82
2022/04/13 07:11:59;;;;;;;20.73;10.98;;;13.50;99.90;;;;;;5088876;28;20040;-82
2022/04/13 07:14:24;;;;;;;18.90;11.32;;;13.40;99.90;;;;;;5112795;22;20075;-82
2022/04/13 07:16:50;;;;;;;23.70;11.73;;;13.40;99.90;;;;;;5087458;22;20036;-84
2022/04/13 07:19:16;;;;;;;20.08;11.27;;;;;;;;;;5072744;23;20062;-82
2022/04/13 07:21:43;;;;;;;19.00;11.20;;;13.00;99.90;;;;;;5109207;22;20058;-82
2022/04/13 07:24:10;;;;;;;18.48;10.88;;;;;;;;;;5118372;22;20040;-82
2022/04/13 07:26:37;;;;;;;18.70;11.57;;;;;;;;;;5102353;28;20551;-83
2022/04/13 07:29:03;;;;;;;20.83;11.38;;;;;;;;;;5114208;22;20105;-83
2022/04/13 07:31:29;;;;;;;21.38;11.13;;;;;;;;;;5087014;22;20139;-82
2022/04/13 07:33:56;;;;;;;20.65;11.20;;;;;;;;;;5057474;22;20041;-82
2022/04/13 07:36:23;;;;;;;19.33;10.52;;;;;;;;;;5076603;22;20087;-83
2022/04/13 07:38:50;;;;;;;18.60;10.23;;;13.50;99.90;;;;;;5069702;28;20052;-83
2022/04/13 07:41:16;;;;;;;19.42;9.85;;;13.70;99.90;;;;;;5087845;22;20036;-82
2022/04/13 07:43:43;;;;;;;19.85;9.77;;;13.80;99.90;;;;;;5045052;28;20057;-83
2022/04/13 07:46:10;;;;;;;15.45;9.40;;;14.30;99.90;;;;;;5070519;22;20377;-81
2022/04/13 07:48:36;;;;;;;17.27;9.27;;;14.00;99.90;;;;;;5100199;28;20402;-83
2022/04/13 07:51:08;;;;;;;15.27;8.35;;;14.80;99.90;;;;;;5078232;22;20052;-82
2022/04/13 07:53:34;;;;;;;15.23;9.05;;;14.30;99.90;;;;;;5059455;22;20047;-82
2022/04/13 07:56:00;;;;;;;16.08;8.65;;;14.40;99.90;;;;;;5078094;22;20365;-92
2022/04/13 07:58:25;;;;;;;18.67;8.43;;;14.50;99.90;;;;;;5084961;22;20041;-83
2022/04/13 08:00:51;;;;;;;16.40;8.40;;;14.70;99.90;;;;;;5107433;22;20050;-90
2022/04/13 08:03:17;;;;;;;19.65;8.32;;;14.70;99.90;;;;;;5092288;22;20482;-83
2022/04/13 08:05:43;;;;;;;14.23;7.55;;;15.00;99.90;;;;;;5081431;28;20498;-83
2022/04/13 08:08:08;;;;;;;14.90;8.13;;;15.10;99.90;;;;;;5094152;22;20055;-91
2022/04/13 08:10:34;;;;;;;13.13;7.57;;;15.20;99.90;;;;;;5081586;28;20048;-83
2022/04/13 08:12:59;;;;;;;16.23;7.40;;;15.20;99.90;;;;;;5081201;28;20063;-84
2022/04/13 08:15:25;;;;;;;14.70;7.10;;;15.30;99.90;;;;;;5098736;28;20064;-83
2022/04/13 08:17:51;;;;;;;11.65;7.43;;;15.30;99.90;;;;;;5098345;28;20131;-83
2022/04/13 08:20:17;;;;;;;15.63;7.18;;;15.20;99.90;;;;;;5094706;22;20562;-83
2022/04/13 08:22:43;;;;;;;12.60;7.60;;;15.10;99.90;;;;;;5085412;22;20052;-82
2022/04/13 08:25:09;;;;;;;14.55;7.80;;;15.10;99.90;;;;;;5099991;28;20056;-83
2022/04/13 08:27:35;;;;;;;16.50;7.50;;;14.90;99.90;;;;;;5082767;28;20047;-83
2022/04/13 08:30:01;;;;;;;14.50;7.78;;;14.90;99.90;;;;;;5082093;28;20105;-83
2022/04/13 08:32:27;;;;;;;11.48;7.22;;;14.80;99.90;;;;;;5100182;28;20057;-83
2022/04/13 08:34:52;;;;;;;16.58;7.32;;;14.70;99.90;;;;;;5107181;22;20077;-83
2022/04/13 08:37:22;;;;;;;16.90;7.97;;;14.80;99.90;;;;;;5110744;22;20429;-82
2022/04/13 08:39:48;;;;;;;15.30;7.80;;;14.80;99.90;;;;;;5087144;28;20052;-83
2022/04/13 08:42:38;;;;;;;14.38;8.27;;;15.00;99.90;;;;;;5108525;22;20072;-83
2022/04/13 08:45:10;;;;;;;16.80;8.25;;;15.00;99.90;;;;;;5117397;22;20449;-82
2022/04/13 08:47:41;;;;;;;13.57;7.40;;;15.10;99.90;;;;;;5082652;28;20047;-82
2022/04/13 08:50:09;;;;;;;16.02;7.68;;;15.10;99.90;;;;;;5097077;28;20051;-82
2022/04/13 08:52:37;;;;;;;21.23;8.70;;;15.10;99.90;;;;;;5103574;22;20403;-83
2022/04/13 08:55:11;;;;;;;17.73;8.27;;;15.70;99.90;;;;;;5076949;28;20130;-83
2022/04/13 08:57:46;;;;;;;15.15;8.65;;;15.30;99.90;;;;;;5092872;28;20134;-83
2022/04/13 09:00:14;;;;;;;15.63;8.88;;;15.40;99.90;;;;;;5114267;28;20435;-83
2022/04/13 09:03:11;;;;;;;14.60;7.82;;;15.50;99.90;;;;;;5096475;28;20056;-83
2022/04/13 09:05:38;;;;;;;17.92;8.40;;;15.50;99.90;;;;;;5096105;28;20372;-83
2022/04/13 09:08:25;;;;;;;13.50;7.85;;;15.60;99.90;;;;;;5096447;28;20418;-83
2022/04/13 09:10:54;;;;;;;15.77;8.38;;;15.70;99.90;;;;;;5094908;28;20044;-83
2022/04/13 09:13:21;;;;;;;15.48;8.52;;;15.80;99.90;;;;;;5095974;28;20055;-83
2022/04/13 09:15:47;;;;;;;19.02;8.48;;;15.80;99.90;;;;;;5114104;28;20047;-90
2022/04/13 09:18:13;;;;;;;15.63;8.45;;;15.80;99.90;;;;;;5095768;28;20047;-83
2022/04/13 09:20:39;;;;;;;15.27;7.68;;;15.90;99.90;;;;;;5114720;28;20051;-83
2022/04/13 09:23:06;;;;;;;15.57;7.13;;;16.00;99.90;;;;;;5115821;28;20051;-92
2022/04/13 09:25:34;;;;;;;12.48;6.93;;;16.10;99.90;;;;;;5102309;28;20087;-84
2022/04/13 09:28:01;;;;;;;14.95;6.72;;;16.20;99.90;;;;;;5081003;28;20090;-83
2022/04/13 09:30:28;;;;;;;13.60;7.40;;;16.30;99.90;;;;;;5114327;28;20487;-83
2022/04/13 09:32:55;;;;;;;14.77;7.63;;;16.50;99.90;;;;;;5121368;28;20062;-89
2022/04/13 09:35:21;;;;;;;16.88;8.57;;;16.60;99.90;;;;;;5093337;28;20472;-83
2022/04/13 09:37:46;;;;;;;14.07;7.50;;;16.70;99.90;;;;;;5116209;28;20035;-84
2022/04/13 09:40:32;;;;;;;14.63;8.13;;;16.90;99.90;;;;;;5116606;28;20119;-87
2022/04/13 09:43:12;;;;;;;13.50;6.93;;;17.00;99.90;;;;;;5096646;28;20083;-88
2022/04/13 09:45:41;;;;;;;12.65;7.47;;;17.10;99.90;;;;;;5095552;28;20055;-84
2022/04/13 09:48:12;;;;;;;14.68;6.50;;;17.20;99.90;;;;;;5095750;28;20083;-83
2022/04/13 09:50:39;;;;;;;10.75;6.35;;;17.10;99.90;;;;;;5114239;28;20127;-84
2022/04/13 09:53:07;;;;;;;11.68;6.25;;;17.10;99.90;;;;;;5095310;28;20527;-87
2022/04/13 09:55:50;;;;;;;10.05;5.32;;;17.10;99.90;;;;;;5096383;28;20079;-84
2022/04/13 09:58:18;;;;;;;10.52;5.55;;;17.10;99.90;;;;;;5096165;28;20076;-84
2022/04/13 10:00:47;;;;;;;14.68;6.35;;;17.10;99.90;;;;;;5114370;28;20111;-83
2022/04/13 10:03:18;;;;;;;13.88;6.97;;;17.20;99.90;;;;;;5095447;28;20051;-87
2022/04/13 10:05:46;;;;;;;13.05;7.30;;;17.40;99.90;;;;;;5097416;28;20493;-84
2022/04/13 10:08:14;;;;;;;15.40;7.70;;;17.20;99.90;;;;;;5114357;28;20051;-87
2022/04/13 10:10:45;;;;;;;17.38;7.55;;;17.20;99.90;;;;;;5096026;28;20043;-84
2022/04/13 10:13:12;;;;;;;16.08;7.72;;;17.20;99.90;;;;;;5095547;28;20054;-84
2022/04/13 10:15:38;;;;;;;13.13;7.53;;;17.10;99.90;;;;;;5113827;28;20049;-85
2022/04/13 10:18:05;;;;;;;15.18;7.97;;;16.90;99.90;;;;;;5096238;28;20445;-83
2022/04/13 10:20:47;;;;;;;17.98;8.45;;;16.90;99.90;;;;;;5081080;28;20136;-84
2022/04/13 10:23:14;;;;;;;17.65;8.25;;;16.80;99.90;;;;;;5085231;28;20052;-84
2022/04/13 10:25:43;;;;;;;14.65;8.30;;;16.80;99.90;;;;;;5085111;28;20043;-84
2022/04/13 10:28:12;;;;;;;17.83;9.15;;;16.70;99.90;;;;;;5108857;22;20047;-83
2022/04/13 10:30:42;;;;;;;15.93;8.40;;;16.70;99.90;;;;;;5063685;28;20130;-84
2022/04/13 10:33:09;;;;;;;15.48;8.90;;;16.60;99.90;;;;;;5064577;28;20040;-83
2022/04/13 10:35:37;;;;;;;17.77;8.90;;;16.70;99.90;;;;;;5073792;22;20398;-85
2022/04/13 10:38:03;;;;;;;15.95;8.70;;;16.80;99.90;;;;;;5084189;28;20047;-84
2022/04/13 10:40:34;;;;;;;15.77;8.57;;;16.80;99.90;;;;;;5100761;28;20040;-83
2022/04/13 10:43:03;;;;;;;17.33;8.23;;;16.90;99.90;;;;;;5100318;28;20043;-83
2022/04/13 10:45:29;;;;;;;15.50;7.88;;;16.90;99.90;;;;;;5093683;22;21438;-83
2022/04/13 10:48:05;;;;;;;13.60;6.70;;;16.60;99.90;;;;;;5102411;28;20433;-83
2022/04/13 10:51:06;;;;;;;16.33;7.28;;;16.60;99.90;;;;;;5083924;28;20132;-83
2022/04/13 10:53:44;;;;;;;13.95;6.60;;;16.50;99.90;;;;;;5088289;28;20395;-86
2022/04/13 10:56:11;;;;;;;13.38;6.88;;;16.50;99.90;;;;;;5083756;22;20056;-84
2022/04/13 10:59:08;;;;;;;17.38;7.68;;;16.30;99.90;;;;;;5097816;28;20469;-86
2022/04/13 11:01:51;;;;;;;14.40;7.50;;;16.20;99.90;;;;;;5105984;28;20390;-87
2022/04/13 11:04:17;;;;;;;14.65;7.80;;;16.10;99.90;;;;;;5101873;28;20040;-85
2022/04/13 11:06:44;;;;;;;13.63;8.02;;;15.80;99.90;;;;;;5119273;28;20490;-84
2022/04/13 11:09:17;;;;;;;14.63;6.82;;;15.80;99.90;;;;;;5116439;28;20047;-84
2022/04/13 11:11:44;;;;;;;14.43;7.43;;;15.80;99.90;;;;;;5119480;28;20047;-83
2022/04/13 11:14:20;;;;;;;17.67;8.70;;;15.80;99.90;;;;;;5115093;28;20040;-84
2022/04/13 11:16:47;;;;;;;15.30;8.55;;;15.80;99.90;;;;;;5097513;28;20390;-84
2022/04/13 11:19:12;;;;;;;16.90;9.25;;;15.70;99.90;;;;;;5097273;28;20119;-84
2022/04/13 11:22:08;;;;;;;16.52;8.80;;;15.70;99.90;;;;;;5096936;28;20501;-84
2022/04/13 11:24:34;;;;;;;18.73;9.23;;;15.80;99.90;;;;;;5078639;28;20040;-84
2022/04/13 11:27:00;;;;;;;15.95;8.70;;;15.70;99.90;;;;;;5099734;28;20394;-92
2022/04/13 11:30:02;;;;;;;15.45;9.07;;;15.70;99.90;;;;;;5098306;28;20509;-84
2022/04/13 11:32:33;;;;;;;18.42;8.98;;;15.60;99.90;;;;;;5082651;28;20058;-83
2022/04/13 11:35:00;;;;;;;15.40;9.40;;;15.70;99.90;;;;;;5095966;28;20085;-85
2022/04/13 11:37:34;;;;;;;19.85;9.82;;;15.60;99.90;;;;;;5097731;28;20402;-85
2022/04/13 11:40:10;;;;;;;15.52;9.60;;;15.50;99.90;;;;;;5098854;28;20052;-84
2022/04/13 11:42:35;;;;;;;;;;;15.50;99.90;;;;;;5099313;28;20482;-88
2022/04/13 11:45:02;;;;;;;17.95;9.88;;;15.50;99.90;;;;;;5097315;28;20079;-84
2022/04/13 11:47:39;;;;;;;16.88;8.63;;;15.60;99.90;;;;;;5100552;28;20036;-83
2022/04/13 11:50:21;;;;;;;17.50;9.13;;;15.70;99.90;;;;;;5117703;28;20101;-83
2022/04/13 11:53:05;;;;;;;18.83;9.10;;;15.80;99.90;;;;;;5117025;28;20047;-83
2022/04/13 11:55:37;;;;;;;20.38;9.45;;;15.80;99.90;;;;;;5122551;28;20082;-83
2022/04/13 11:58:09;;;;;;;16.15;8.77;;;15.80;99.90;;;;;;5119681;28;20051;-83
2022/04/13 12:00:55;;;;;;;18.58;9.57;;;15.80;99.90;;;;;;5118959;28;20470;-83
2022/04/13 12:03:27;;;;;;;16.52;9.02;;;15.60;99.90;;;;;;5118084;28;20067;-83
2022/04/13 12:05:59;;;;;;;15.65;8.45;;;15.50;99.90;;;;;;5117043;28;20039;-83
2022/04/13 12:08:30;;;;;;;19.13;9.02;;;15.50;99.90;;;;;;5117893;28;20101;-83
2022/04/13 12:11:14;;;;;;;15.55;8.60;;;15.50;99.90;;;;;;5116670;28;20100;-83
2022/04/13 12:13:56;;;;;;;15.88;8.10;;;15.50;99.90;;;;;;5117720;28;20420;-83
2022/04/13 12:16:21;;;;;;;18.38;8.77;;;15.50;99.90;;;;;;5117273;28;20367;-83
2022/04/13 12:18:48;;;;;;;17.65;8.93;;;15.50;99.90;;;;;;5103552;28;20090;-83
2022/04/13 12:21:21;;;;;;;20.67;9.25;;;15.50;99.90;;;;;;5096040;28;20047;-83
2022/04/13 12:23:48;;;;;;;16.63;8.50;;;15.50;99.90;;;;;;5096026;28;20497;-83
2022/04/13 12:26:15;;;;;;;16.98;8.85;;;15.40;99.90;;;;;;5094594;28;20131;-83
2022/04/13 12:28:40;;;;;;;19.67;9.32;;;15.20;99.90;;;;;;5099462;28;20036;-83
2022/04/13 12:31:08;;;;;;;18.48;8.90;;;15.30;99.90;;;;;;5094441;28;20402;-83
2022/04/13 12:33:36;;;;;;;21.13;9.35;;;15.20;99.90;;;;;;5097971;28;20044;-83
2022/04/13 12:36:12;;;;;;;16.65;8.50;;;15.20;99.90;;;;;;5114065;28;20135;-84
2022/04/13 12:38:54;;;;;;;19.85;9.52;;;15.40;99.90;;;;;;5116516;28;20049;-83
2022/04/13 12:41:21;;;;;;;19.42;8.90;;;15.50;99.90;;;;;;5116085;28;20044;-83
2022/04/13 12:43:59;;;;;;;18.25;9.38;;;15.70;99.90;;;;;;5116317;28;20545;-83
2022/04/13 12:46:30;;;;;;;17.58;8.48;;;15.90;99.90;;;;;;5115629;28;20047;-83
2022/04/13 12:48:58;;;;;;;18.27;8.30;;;16.00;99.90;;;;;;5116346;28;20044;-83
2022/04/13 12:51:30;;;;;;;18.85;8.13;;;16.00;99.90;;;;;;5110349;28;20146;-83
2022/04/13 12:54:02;;;;;;;16.83;8.27;;;16.10;99.90;;;;;;5096055;28;20043;-90
2022/04/13 12:56:30;;;;;;;15.93;7.00;;;16.10;99.90;;;;;;5098054;28;20089;-85
2022/04/13 12:58:56;;;;;;;12.48;7.57;;;16.20;99.90;;;;;;5115097;28;20482;-83